sensor_id;sensor_type;location;lat;lon;timestamp;P1;durP1;ratioP1;P2;durP2;ratioP2
25237;SDS011;13185;50.872;5.306;2023-05-19T00:01:56;9.32;;;3.80;;
25237;SDS011;13185;50.872;5.306;2023-05-19T00:04:24;7.88;;;4.25;;
25237;SDS011;13185;50.872;5.306;2023-05-19T00:06:51;7.00;;;3.42;;
25237;SDS011;13185;50.872;5.306;2023-05-19T00:09:18;6.70;;;3.50;;
25237;SDS011;13185;50.872;5.306;2023-05-19T00:11:44;8.82;;;4.07;;
25237;SDS011;13185;50.872;5.306;2023-05-19T00:14:10;6.55;;;3.53;;
25237;SDS011;13185;50.872;5.306;2023-05-19T00:16:36;6.45;;;3.47;;
25237;SDS011;13185;50.872;5.306;2023-05-19T00:19:02;7.05;;;4.03;;
25237;SDS011;13185;50.872;5.306;2023-05-19T00:21:29;8.73;;;4.32;;
25237;SDS011;13185;50.872;5.306;2023-05-19T00:23:55;6.80;;;3.55;;
25237;SDS011;13185;50.872;5.306;2023-05-19T00:26:22;5.75;;;3.85;;
25237;SDS011;13185;50.872;5.306;2023-05-19T00:29:00;9.15;;;3.80;;
25237;SDS011;13185;50.872;5.306;2023-05-19T00:31:25;7.93;;;3.55;;
25237;SDS011;13185;50.872;5.306;2023-05-19T00:33:51;5.88;;;4.03;;
25237;SDS011;13185;50.872;5.306;2023-05-19T00:36:16;8.18;;;3.80;;
25237;SDS011;13185;50.872;5.306;2023-05-19T00:38:42;11.18;;;3.83;;
25237;SDS011;13185;50.872;5.306;2023-05-19T00:41:07;8.45;;;3.83;;
25237;SDS011;13185;50.872;5.306;2023-05-19T00:43:33;7.85;;;3.53;;
25237;SDS011;13185;50.872;5.306;2023-05-19T00:45:59;6.30;;;3.85;;
25237;SDS011;13185;50.872;5.306;2023-05-19T00:48:25;9.82;;;3.83;;
25237;SDS011;13185;50.872;5.306;2023-05-19T00:50:54;7.10;;;3.45;;
25237;SDS011;13185;50.872;5.306;2023-05-19T00:53:26;6.32;;;3.35;;
25237;SDS011;13185;50.872;5.306;2023-05-19T00:55:51;7.88;;;4.07;;
25237;SDS011;13185;50.872;5.306;2023-05-19T00:58:17;10.45;;;3.30;;
25237;SDS011;13185;50.872;5.306;2023-05-19T01:00:43;8.90;;;3.65;;
25237;SDS011;13185;50.872;5.306;2023-05-19T01:03:09;5.60;;;3.17;;
25237;SDS011;13185;50.872;5.306;2023-05-19T01:05:41;8.02;;;3.22;;
25237;SDS011;13185;50.872;5.306;2023-05-19T01:08:11;9.20;;;3.40;;
25237;SDS011;13185;50.872;5.306;2023-05-19T01:10:37;6.90;;;3.42;;
25237;SDS011;13185;50.872;5.306;2023-05-19T01:13:04;9.32;;;4.40;;
25237;SDS011;13185;50.872;5.306;2023-05-19T01:15:41;8.68;;;3.45;;
25237;SDS011;13185;50.872;5.306;2023-05-19T01:18:23;7.07;;;3.47;;
25237;SDS011;13185;50.872;5.306;2023-05-19T01:20:58;4.50;;;2.97;;
25237;SDS011;13185;50.872;5.306;2023-05-19T01:24:05;7.20;;;4.07;;
25237;SDS011;13185;50.872;5.306;2023-05-19T01:29:27;8.88;;;3.60;;
25237;SDS011;13185;50.872;5.306;2023-05-19T01:32:05;8.30;;;3.33;;
25237;SDS011;13185;50.872;5.306;2023-05-19T01:34:33;5.60;;;3.45;;
25237;SDS011;13185;50.872;5.306;2023-05-19T01:37:03;7.43;;;3.58;;
25237;SDS011;13185;50.872;5.306;2023-05-19T01:39:29;6.55;;;4.03;;
25237;SDS011;13185;50.872;5.306;2023-05-19T01:41:56;6.20;;;3.60;;
25237;SDS011;13185;50.872;5.306;2023-05-19T01:44:22;5.90;;;3.75;;
25237;SDS011;13185;50.872;5.306;2023-05-19T01:46:48;6.68;;;3.47;;
25237;SDS011;13185;50.872;5.306;2023-05-19T01:49:14;5.00;;;3.35;;
25237;SDS011;13185;50.872;5.306;2023-05-19T01:51:43;6.05;;;3.72;;
25237;SDS011;13185;50.872;5.306;2023-05-19T01:54:08;7.95;;;4.05;;
25237;SDS011;13185;50.872;5.306;2023-05-19T01:56:40;9.82;;;4.15;;
25237;SDS011;13185;50.872;5.306;2023-05-19T01:59:29;5.05;;;3.53;;
25237;SDS011;13185;50.872;5.306;2023-05-19T02:04:59;4.80;;;3.38;;
25237;SDS011;13185;50.872;5.306;2023-05-19T02:07:40;7.97;;;4.38;;
25237;SDS011;13185;50.872;5.306;2023-05-19T02:10:19;8.48;;;4.57;;
25237;SDS011;13185;50.872;5.306;2023-05-19T02:12:52;7.32;;;3.97;;
25237;SDS011;13185;50.872;5.306;2023-05-19T02:15:20;5.55;;;4.10;;
25237;SDS011;13185;50.872;5.306;2023-05-19T02:17:50;8.70;;;4.18;;
25237;SDS011;13185;50.872;5.306;2023-05-19T02:20:18;8.35;;;4.50;;
25237;SDS011;13185;50.872;5.306;2023-05-19T02:22:46;8.25;;;4.28;;
25237;SDS011;13185;50.872;5.306;2023-05-19T02:25:12;8.50;;;5.18;;
25237;SDS011;13185;50.872;5.306;2023-05-19T02:27:38;5.80;;;4.03;;
25237;SDS011;13185;50.872;5.306;2023-05-19T02:30:05;9.85;;;4.85;;
25237;SDS011;13185;50.872;5.306;2023-05-19T02:32:32;6.78;;;4.47;;
25237;SDS011;13185;50.872;5.306;2023-05-19T02:34:58;8.50;;;4.65;;
25237;SDS011;13185;50.872;5.306;2023-05-19T02:37:24;7.43;;;4.05;;
25237;SDS011;13185;50.872;5.306;2023-05-19T02:39:52;7.25;;;4.60;;
25237;SDS011;13185;50.872;5.306;2023-05-19T02:42:18;5.85;;;4.40;;
25237;SDS011;13185;50.872;5.306;2023-05-19T02:44:44;8.90;;;4.47;;
25237;SDS011;13185;50.872;5.306;2023-05-19T02:47:10;7.25;;;4.43;;
25237;SDS011;13185;50.872;5.306;2023-05-19T02:49:36;7.28;;;4.63;;
25237;SDS011;13185;50.872;5.306;2023-05-19T02:52:02;7.55;;;4.60;;
25237;SDS011;13185;50.872;5.306;2023-05-19T02:54:29;5.57;;;3.95;;
25237;SDS011;13185;50.872;5.306;2023-05-19T02:56:56;7.95;;;4.38;;
25237;SDS011;13185;50.872;5.306;2023-05-19T02:59:22;5.03;;;4.18;;
25237;SDS011;13185;50.872;5.306;2023-05-19T03:01:48;7.07;;;4.40;;
25237;SDS011;13185;50.872;5.306;2023-05-19T03:04:15;7.88;;;4.15;;
25237;SDS011;13185;50.872;5.306;2023-05-19T03:06:40;6.03;;;4.15;;
25237;SDS011;13185;50.872;5.306;2023-05-19T03:09:06;5.47;;;4.60;;
25237;SDS011;13185;50.872;5.306;2023-05-19T03:11:32;6.20;;;4.28;;
25237;SDS011;13185;50.872;5.306;2023-05-19T03:13:57;5.30;;;4.55;;
25237;SDS011;13185;50.872;5.306;2023-05-19T03:16:23;6.32;;;4.13;;
25237;SDS011;13185;50.872;5.306;2023-05-19T03:18:49;6.10;;;4.13;;
25237;SDS011;13185;50.872;5.306;2023-05-19T03:21:15;8.55;;;4.75;;
25237;SDS011;13185;50.872;5.306;2023-05-19T03:23:40;6.03;;;4.60;;
25237;SDS011;13185;50.872;5.306;2023-05-19T03:26:07;6.75;;;4.80;;
25237;SDS011;13185;50.872;5.306;2023-05-19T03:28:33;7.15;;;5.43;;
25237;SDS011;13185;50.872;5.306;2023-05-19T03:30:58;6.88;;;4.50;;
25237;SDS011;13185;50.872;5.306;2023-05-19T03:33:28;8.60;;;4.28;;
25237;SDS011;13185;50.872;5.306;2023-05-19T03:35:55;7.50;;;4.50;;
25237;SDS011;13185;50.872;5.306;2023-05-19T03:38:21;5.55;;;4.18;;
25237;SDS011;13185;50.872;5.306;2023-05-19T03:40:53;7.72;;;5.07;;
25237;SDS011;13185;50.872;5.306;2023-05-19T03:43:19;7.82;;;4.07;;
25237;SDS011;13185;50.872;5.306;2023-05-19T03:45:50;11.23;;;5.30;;
25237;SDS011;13185;50.872;5.306;2023-05-19T03:48:40;5.65;;;4.40;;
25237;SDS011;13185;50.872;5.306;2023-05-19T03:51:32;8.13;;;4.30;;
25237;SDS011;13185;50.872;5.306;2023-05-19T03:54:10;7.32;;;5.10;;
25237;SDS011;13185;50.872;5.306;2023-05-19T03:56:37;8.77;;;5.07;;
25237;SDS011;13185;50.872;5.306;2023-05-19T03:59:06;7.15;;;5.28;;
25237;SDS011;13185;50.872;5.306;2023-05-19T04:01:32;8.48;;;5.50;;
25237;SDS011;13185;50.872;5.306;2023-05-19T04:03:57;11.73;;;6.15;;
25237;SDS011;13185;50.872;5.306;2023-05-19T04:06:23;7.60;;;4.97;;
25237;SDS011;13185;50.872;5.306;2023-05-19T04:08:48;11.82;;;5.07;;
25237;SDS011;13185;50.872;5.306;2023-05-19T04:11:14;7.35;;;4.93;;
25237;SDS011;13185;50.872;5.306;2023-05-19T04:13:40;9.90;;;5.82;;
25237;SDS011;13185;50.872;5.306;2023-05-19T04:16:05;7.90;;;5.22;;
25237;SDS011;13185;50.872;5.306;2023-05-19T04:18:31;9.88;;;5.72;;
25237;SDS011;13185;50.872;5.306;2023-05-19T04:20:57;7.63;;;5.20;;
25237;SDS011;13185;50.872;5.306;2023-05-19T04:23:23;6.82;;;4.95;;
25237;SDS011;13185;50.872;5.306;2023-05-19T04:25:49;10.63;;;4.70;;
25237;SDS011;13185;50.872;5.306;2023-05-19T04:28:15;8.13;;;4.97;;
25237;SDS011;13185;50.872;5.306;2023-05-19T04:30:41;8.38;;;5.68;;
25237;SDS011;13185;50.872;5.306;2023-05-19T04:33:10;8.00;;;5.15;;
25237;SDS011;13185;50.872;5.306;2023-05-19T04:35:37;9.30;;;4.82;;
25237;SDS011;13185;50.872;5.306;2023-05-19T04:38:04;10.07;;;5.90;;
25237;SDS011;13185;50.872;5.306;2023-05-19T04:40:32;7.78;;;5.32;;
25237;SDS011;13185;50.872;5.306;2023-05-19T04:42:57;7.75;;;5.20;;
25237;SDS011;13185;50.872;5.306;2023-05-19T04:45:26;6.47;;;4.80;;
25237;SDS011;13185;50.872;5.306;2023-05-19T04:47:55;6.57;;;5.20;;
25237;SDS011;13185;50.872;5.306;2023-05-19T04:50:22;7.03;;;5.47;;
25237;SDS011;13185;50.872;5.306;2023-05-19T04:52:49;9.23;;;5.72;;
25237;SDS011;13185;50.872;5.306;2023-05-19T04:55:14;8.85;;;5.00;;
25237;SDS011;13185;50.872;5.306;2023-05-19T04:57:41;8.57;;;4.50;;
25237;SDS011;13185;50.872;5.306;2023-05-19T05:00:08;8.93;;;4.70;;
25237;SDS011;13185;50.872;5.306;2023-05-19T05:02:47;10.05;;;5.47;;
25237;SDS011;13185;50.872;5.306;2023-05-19T05:05:18;8.07;;;4.32;;
25237;SDS011;13185;50.872;5.306;2023-05-19T05:07:43;11.05;;;4.95;;
25237;SDS011;13185;50.872;5.306;2023-05-19T05:10:09;8.25;;;4.88;;
25237;SDS011;13185;50.872;5.306;2023-05-19T05:12:35;8.73;;;4.88;;
25237;SDS011;13185;50.872;5.306;2023-05-19T05:15:00;12.95;;;4.57;;
25237;SDS011;13185;50.872;5.306;2023-05-19T05:17:26;11.77;;;4.80;;
25237;SDS011;13185;50.872;5.306;2023-05-19T05:19:52;12.07;;;4.93;;
25237;SDS011;13185;50.872;5.306;2023-05-19T05:22:19;11.20;;;4.88;;
25237;SDS011;13185;50.872;5.306;2023-05-19T05:24:46;8.88;;;4.50;;
25237;SDS011;13185;50.872;5.306;2023-05-19T05:27:12;6.10;;;4.10;;
25237;SDS011;13185;50.872;5.306;2023-05-19T05:29:38;8.40;;;4.80;;
25237;SDS011;13185;50.872;5.306;2023-05-19T05:32:05;7.63;;;4.75;;
25237;SDS011;13185;50.872;5.306;2023-05-19T05:34:32;6.45;;;4.53;;
25237;SDS011;13185;50.872;5.306;2023-05-19T05:36:59;11.30;;;5.55;;
25237;SDS011;13185;50.872;5.306;2023-05-19T05:39:25;9.60;;;4.90;;
25237;SDS011;13185;50.872;5.306;2023-05-19T05:41:52;9.45;;;4.93;;
25237;SDS011;13185;50.872;5.306;2023-05-19T05:44:18;9.82;;;4.90;;
25237;SDS011;13185;50.872;5.306;2023-05-19T05:46:44;11.52;;;5.40;;
25237;SDS011;13185;50.872;5.306;2023-05-19T05:49:10;8.63;;;5.15;;
25237;SDS011;13185;50.872;5.306;2023-05-19T05:51:39;8.98;;;4.80;;
25237;SDS011;13185;50.872;5.306;2023-05-19T05:54:06;8.95;;;5.35;;
25237;SDS011;13185;50.872;5.306;2023-05-19T05:56:39;10.63;;;5.10;;
25237;SDS011;13185;50.872;5.306;2023-05-19T05:59:07;11.43;;;5.60;;
25237;SDS011;13185;50.872;5.306;2023-05-19T06:01:32;12.30;;;5.35;;
25237;SDS011;13185;50.872;5.306;2023-05-19T06:04:01;11.13;;;5.22;;
25237;SDS011;13185;50.872;5.306;2023-05-19T06:06:28;7.80;;;5.05;;
25237;SDS011;13185;50.872;5.306;2023-05-19T06:08:54;10.50;;;5.30;;
25237;SDS011;13185;50.872;5.306;2023-05-19T06:11:21;11.00;;;5.00;;
25237;SDS011;13185;50.872;5.306;2023-05-19T06:13:46;10.18;;;5.13;;
25237;SDS011;13185;50.872;5.306;2023-05-19T06:16:21;14.18;;;5.03;;
25237;SDS011;13185;50.872;5.306;2023-05-19T06:18:46;11.13;;;5.40;;
25237;SDS011;13185;50.872;5.306;2023-05-19T06:21:12;11.25;;;5.47;;
25237;SDS011;13185;50.872;5.306;2023-05-19T06:23:39;8.73;;;4.80;;
25237;SDS011;13185;50.872;5.306;2023-05-19T06:26:07;8.70;;;5.13;;
25237;SDS011;13185;50.872;5.306;2023-05-19T06:28:32;13.77;;;4.40;;
25237;SDS011;13185;50.872;5.306;2023-05-19T06:30:58;7.93;;;4.20;;
25237;SDS011;13185;50.872;5.306;2023-05-19T06:33:37;10.98;;;4.60;;
25237;SDS011;13185;50.872;5.306;2023-05-19T06:36:03;11.15;;;4.70;;
25237;SDS011;13185;50.872;5.306;2023-05-19T06:38:29;9.23;;;4.47;;
25237;SDS011;13185;50.872;5.306;2023-05-19T06:40:55;8.65;;;4.40;;
25237;SDS011;13185;50.872;5.306;2023-05-19T06:43:21;9.90;;;4.50;;
25237;SDS011;13185;50.872;5.306;2023-05-19T06:45:54;13.48;;;4.53;;
25237;SDS011;13185;50.872;5.306;2023-05-19T06:48:22;10.80;;;4.25;;
25237;SDS011;13185;50.872;5.306;2023-05-19T06:50:48;8.63;;;4.72;;
25237;SDS011;13185;50.872;5.306;2023-05-19T06:53:15;10.35;;;3.95;;
25237;SDS011;13185;50.872;5.306;2023-05-19T06:55:43;8.57;;;4.25;;
25237;SDS011;13185;50.872;5.306;2023-05-19T06:58:10;9.52;;;3.85;;
25237;SDS011;13185;50.872;5.306;2023-05-19T07:00:36;7.93;;;3.65;;
25237;SDS011;13185;50.872;5.306;2023-05-19T07:03:04;8.18;;;3.75;;
25237;SDS011;13185;50.872;5.306;2023-05-19T07:05:29;9.30;;;4.15;;
25237;SDS011;13185;50.872;5.306;2023-05-19T07:07:57;4.50;;;2.78;;
25237;SDS011;13185;50.872;5.306;2023-05-19T07:10:26;8.98;;;3.85;;
25237;SDS011;13185;50.872;5.306;2023-05-19T07:12:53;6.00;;;3.45;;
25237;SDS011;13185;50.872;5.306;2023-05-19T07:15:21;9.00;;;3.70;;
25237;SDS011;13185;50.872;5.306;2023-05-19T07:17:47;6.57;;;3.08;;
25237;SDS011;13185;50.872;5.306;2023-05-19T07:20:13;6.85;;;2.90;;
25237;SDS011;13185;50.872;5.306;2023-05-19T07:22:38;10.57;;;4.00;;
25237;SDS011;13185;50.872;5.306;2023-05-19T07:25:05;11.93;;;4.40;;
25237;SDS011;13185;50.872;5.306;2023-05-19T07:27:32;7.68;;;3.70;;
25237;SDS011;13185;50.872;5.306;2023-05-19T07:29:57;8.98;;;3.60;;
25237;SDS011;13185;50.872;5.306;2023-05-19T07:32:23;8.25;;;3.30;;
25237;SDS011;13185;50.872;5.306;2023-05-19T07:34:49;9.13;;;3.85;;
25237;SDS011;13185;50.872;5.306;2023-05-19T07:37:15;7.97;;;4.15;;
25237;SDS011;13185;50.872;5.306;2023-05-19T07:39:41;11.38;;;4.20;;
25237;SDS011;13185;50.872;5.306;2023-05-19T07:42:06;8.43;;;3.47;;
25237;SDS011;13185;50.872;5.306;2023-05-19T07:44:32;13.68;;;3.00;;
25237;SDS011;13185;50.872;5.306;2023-05-19T07:46:58;8.85;;;3.05;;
25237;SDS011;13185;50.872;5.306;2023-05-19T07:49:24;12.77;;;3.25;;
25237;SDS011;13185;50.872;5.306;2023-05-19T07:51:50;5.57;;;2.20;;
25237;SDS011;13185;50.872;5.306;2023-05-19T07:54:16;6.82;;;2.25;;
25237;SDS011;13185;50.872;5.306;2023-05-19T07:56:42;6.30;;;2.47;;
25237;SDS011;13185;50.872;5.306;2023-05-19T07:59:07;5.47;;;2.30;;
25237;SDS011;13185;50.872;5.306;2023-05-19T08:01:33;5.85;;;2.22;;
25237;SDS011;13185;50.872;5.306;2023-05-19T08:03:58;5.10;;;2.10;;
25237;SDS011;13185;50.872;5.306;2023-05-19T08:06:24;3.70;;;1.52;;
25237;SDS011;13185;50.872;5.306;2023-05-19T08:08:50;5.55;;;2.28;;
25237;SDS011;13185;50.872;5.306;2023-05-19T08:11:16;5.55;;;1.92;;
25237;SDS011;13185;50.872;5.306;2023-05-19T08:13:42;3.83;;;1.48;;
25237;SDS011;13185;50.872;5.306;2023-05-19T08:16:08;6.60;;;1.70;;
25237;SDS011;13185;50.872;5.306;2023-05-19T08:18:33;5.07;;;1.63;;
25237;SDS011;13185;50.872;5.306;2023-05-19T08:20:59;4.95;;;1.48;;
25237;SDS011;13185;50.872;5.306;2023-05-19T08:23:25;6.47;;;1.42;;
25237;SDS011;13185;50.872;5.306;2023-05-19T08:25:50;7.40;;;1.65;;
25237;SDS011;13185;50.872;5.306;2023-05-19T08:28:16;6.97;;;1.60;;
25237;SDS011;13185;50.872;5.306;2023-05-19T08:30:42;5.75;;;1.33;;
25237;SDS011;13185;50.872;5.306;2023-05-19T08:33:07;4.32;;;1.25;;
25237;SDS011;13185;50.872;5.306;2023-05-19T08:35:33;9.13;;;1.92;;
25237;SDS011;13185;50.872;5.306;2023-05-19T08:37:58;6.13;;;1.42;;
25237;SDS011;13185;50.872;5.306;2023-05-19T08:40:24;4.90;;;1.05;;
25237;SDS011;13185;50.872;5.306;2023-05-19T08:42:51;6.55;;;1.40;;
25237;SDS011;13185;50.872;5.306;2023-05-19T08:45:18;6.57;;;1.00;;
25237;SDS011;13185;50.872;5.306;2023-05-19T08:47:46;5.45;;;1.40;;
25237;SDS011;13185;50.872;5.306;2023-05-19T08:50:14;6.28;;;1.10;;
25237;SDS011;13185;50.872;5.306;2023-05-19T08:58:00;8.30;;;1.65;;
25237;SDS011;13185;50.872;5.306;2023-05-19T09:00:28;5.38;;;1.40;;
25237;SDS011;13185;50.872;5.306;2023-05-19T09:02:54;8.50;;;1.60;;
25237;SDS011;13185;50.872;5.306;2023-05-19T09:05:21;8.38;;;1.60;;
25237;SDS011;13185;50.872;5.306;2023-05-19T09:07:47;8.25;;;1.38;;
25237;SDS011;13185;50.872;5.306;2023-05-19T09:10:13;6.32;;;1.67;;
25237;SDS011;13185;50.872;5.306;2023-05-19T09:12:43;3.72;;;0.80;;
25237;SDS011;13185;50.872;5.306;2023-05-19T09:15:11;6.82;;;1.13;;
25237;SDS011;13185;50.872;5.306;2023-05-19T09:17:37;5.95;;;1.30;;
25237;SDS011;13185;50.872;5.306;2023-05-19T09:20:04;4.30;;;1.40;;
25237;SDS011;13185;50.872;5.306;2023-05-19T09:22:41;4.07;;;1.02;;
25237;SDS011;13185;50.872;5.306;2023-05-19T09:25:45;4.60;;;1.10;;
25237;SDS011;13185;50.872;5.306;2023-05-19T09:28:13;3.53;;;1.40;;
25237;SDS011;13185;50.872;5.306;2023-05-19T09:30:39;4.93;;;1.35;;
25237;SDS011;13185;50.872;5.306;2023-05-19T09:33:04;6.30;;;1.20;;
25237;SDS011;13185;50.872;5.306;2023-05-19T09:35:34;5.45;;;0.93;;
25237;SDS011;13185;50.872;5.306;2023-05-19T09:38:00;6.43;;;1.35;;
25237;SDS011;13185;50.872;5.306;2023-05-19T09:40:27;9.18;;;1.88;;
25237;SDS011;13185;50.872;5.306;2023-05-19T09:42:52;5.50;;;1.35;;
25237;SDS011;13185;50.872;5.306;2023-05-19T09:45:18;6.25;;;1.25;;
25237;SDS011;13185;50.872;5.306;2023-05-19T09:47:44;6.00;;;1.70;;
25237;SDS011;13185;50.872;5.306;2023-05-19T09:50:10;4.95;;;1.05;;
25237;SDS011;13185;50.872;5.306;2023-05-19T09:52:41;7.68;;;1.02;;
25237;SDS011;13185;50.872;5.306;2023-05-19T09:55:11;4.53;;;1.00;;
25237;SDS011;13185;50.872;5.306;2023-05-19T09:57:38;4.85;;;1.30;;
25237;SDS011;13185;50.872;5.306;2023-05-19T10:02:35;5.80;;;1.20;;
25237;SDS011;13185;50.872;5.306;2023-05-19T10:05:05;3.08;;;1.13;;
25237;SDS011;13185;50.872;5.306;2023-05-19T10:07:31;9.02;;;1.50;;
25237;SDS011;13185;50.872;5.306;2023-05-19T10:09:58;4.38;;;1.55;;
25237;SDS011;13185;50.872;5.306;2023-05-19T10:12:24;4.82;;;1.55;;
25237;SDS011;13185;50.872;5.306;2023-05-19T10:14:50;4.75;;;1.20;;
25237;SDS011;13185;50.872;5.306;2023-05-19T10:17:18;5.35;;;1.52;;
25237;SDS011;13185;50.872;5.306;2023-05-19T10:19:44;5.00;;;1.63;;
25237;SDS011;13185;50.872;5.306;2023-05-19T10:22:11;5.72;;;1.30;;
25237;SDS011;13185;50.872;5.306;2023-05-19T10:24:37;4.85;;;1.42;;
25237;SDS011;13185;50.872;5.306;2023-05-19T10:27:04;5.75;;;1.73;;
25237;SDS011;13185;50.872;5.306;2023-05-19T10:29:33;6.95;;;1.30;;
25237;SDS011;13185;50.872;5.306;2023-05-19T10:32:03;3.75;;;1.38;;
25237;SDS011;13185;50.872;5.306;2023-05-19T10:37:40;5.55;;;1.50;;
25237;SDS011;13185;50.872;5.306;2023-05-19T10:45:52;4.32;;;1.35;;
25237;SDS011;13185;50.872;5.306;2023-05-19T10:48:19;5.65;;;1.23;;
25237;SDS011;13185;50.872;5.306;2023-05-19T10:50:47;3.00;;;1.20;;
25237;SDS011;13185;50.872;5.306;2023-05-19T10:53:13;5.57;;;1.48;;
25237;SDS011;13185;50.872;5.306;2023-05-19T10:58:36;5.20;;;1.15;;
25237;SDS011;13185;50.872;5.306;2023-05-19T11:01:07;6.68;;;1.73;;
25237;SDS011;13185;50.872;5.306;2023-05-19T11:06:44;5.32;;;2.03;;
25237;SDS011;13185;50.872;5.306;2023-05-19T11:09:11;3.92;;;1.48;;
25237;SDS011;13185;50.872;5.306;2023-05-19T11:11:52;5.68;;;1.45;;
25237;SDS011;13185;50.872;5.306;2023-05-19T11:14:22;6.97;;;1.40;;
25237;SDS011;13185;50.872;5.306;2023-05-19T11:16:51;6.45;;;1.52;;
25237;SDS011;13185;50.872;5.306;2023-05-19T11:22:21;6.35;;;2.05;;
25237;SDS011;13185;50.872;5.306;2023-05-19T11:24:49;7.90;;;1.60;;
25237;SDS011;13185;50.872;5.306;2023-05-19T11:30:13;4.75;;;1.58;;
25237;SDS011;13185;50.872;5.306;2023-05-19T11:32:39;4.93;;;1.75;;
25237;SDS011;13185;50.872;5.306;2023-05-19T11:35:09;5.53;;;1.80;;
25237;SDS011;13185;50.872;5.306;2023-05-19T11:37:35;7.18;;;1.60;;
25237;SDS011;13185;50.872;5.306;2023-05-19T11:40:01;7.25;;;2.00;;
25237;SDS011;13185;50.872;5.306;2023-05-19T11:42:30;4.57;;;1.30;;
25237;SDS011;13185;50.872;5.306;2023-05-19T11:44:56;5.35;;;2.22;;
25237;SDS011;13185;50.872;5.306;2023-05-19T11:47:22;6.28;;;1.60;;
25237;SDS011;13185;50.872;5.306;2023-05-19T11:49:48;4.28;;;2.00;;
25237;SDS011;13185;50.872;5.306;2023-05-19T11:52:16;6.57;;;1.55;;
25237;SDS011;13185;50.872;5.306;2023-05-19T11:54:41;4.03;;;1.15;;
25237;SDS011;13185;50.872;5.306;2023-05-19T11:57:08;4.88;;;1.75;;
25237;SDS011;13185;50.872;5.306;2023-05-19T11:59:38;4.88;;;1.63;;
25237;SDS011;13185;50.872;5.306;2023-05-19T12:02:17;5.28;;;1.75;;
25237;SDS011;13185;50.872;5.306;2023-05-19T12:04:45;9.15;;;1.73;;
25237;SDS011;13185;50.872;5.306;2023-05-19T12:07:22;3.13;;;1.17;;
25237;SDS011;13185;50.872;5.306;2023-05-19T12:09:49;4.40;;;1.35;;
25237;SDS011;13185;50.872;5.306;2023-05-19T12:12:16;4.25;;;1.27;;
25237;SDS011;13185;50.872;5.306;2023-05-19T12:14:45;4.47;;;1.70;;
25237;SDS011;13185;50.872;5.306;2023-05-19T12:17:12;8.23;;;1.73;;
25237;SDS011;13185;50.872;5.306;2023-05-19T12:19:43;9.23;;;2.00;;
25237;SDS011;13185;50.872;5.306;2023-05-19T12:22:10;4.82;;;1.85;;
25237;SDS011;13185;50.872;5.306;2023-05-19T12:24:36;5.80;;;1.77;;
25237;SDS011;13185;50.872;5.306;2023-05-19T12:27:16;6.63;;;1.63;;
25237;SDS011;13185;50.872;5.306;2023-05-19T12:29:50;6.70;;;2.38;;
25237;SDS011;13185;50.872;5.306;2023-05-19T12:32:25;5.32;;;1.90;;
25237;SDS011;13185;50.872;5.306;2023-05-19T12:34:54;5.88;;;1.58;;
25237;SDS011;13185;50.872;5.306;2023-05-19T12:37:20;7.97;;;2.20;;
25237;SDS011;13185;50.872;5.306;2023-05-19T12:39:47;2.75;;;1.20;;
25237;SDS011;13185;50.872;5.306;2023-05-19T12:42:14;6.75;;;1.83;;
25237;SDS011;13185;50.872;5.306;2023-05-19T12:47:17;6.82;;;1.55;;
25237;SDS011;13185;50.872;5.306;2023-05-19T12:49:54;5.47;;;1.23;;
25237;SDS011;13185;50.872;5.306;2023-05-19T12:52:27;5.60;;;1.40;;
25237;SDS011;13185;50.872;5.306;2023-05-19T12:55:11;5.95;;;1.30;;
25237;SDS011;13185;50.872;5.306;2023-05-19T12:57:47;8.50;;;1.83;;
25237;SDS011;13185;50.872;5.306;2023-05-19T13:00:24;5.45;;;1.70;;
25237;SDS011;13185;50.872;5.306;2023-05-19T13:02:58;4.88;;;1.20;;
25237;SDS011;13185;50.872;5.306;2023-05-19T13:05:30;4.53;;;1.50;;
25237;SDS011;13185;50.872;5.306;2023-05-19T13:08:01;9.15;;;1.65;;
25237;SDS011;13185;50.872;5.306;2023-05-19T13:10:29;4.85;;;1.35;;
25237;SDS011;13185;50.872;5.306;2023-05-19T13:12:56;4.07;;;1.30;;
25237;SDS011;13185;50.872;5.306;2023-05-19T13:15:24;6.45;;;1.85;;
25237;SDS011;13185;50.872;5.306;2023-05-19T13:17:51;4.97;;;1.23;;
25237;SDS011;13185;50.872;5.306;2023-05-19T13:20:17;6.72;;;1.50;;
25237;SDS011;13185;50.872;5.306;2023-05-19T13:22:43;4.93;;;1.45;;
25237;SDS011;13185;50.872;5.306;2023-05-19T13:25:09;5.90;;;1.60;;
25237;SDS011;13185;50.872;5.306;2023-05-19T13:27:35;5.40;;;1.48;;
25237;SDS011;13185;50.872;5.306;2023-05-19T13:30:01;6.90;;;1.17;;
25237;SDS011;13185;50.872;5.306;2023-05-19T13:32:28;4.20;;;1.40;;
25237;SDS011;13185;50.872;5.306;2023-05-19T13:34:54;4.32;;;1.20;;
25237;SDS011;13185;50.872;5.306;2023-05-19T13:37:19;3.83;;;1.17;;
25237;SDS011;13185;50.872;5.306;2023-05-19T13:39:45;5.90;;;1.60;;
25237;SDS011;13185;50.872;5.306;2023-05-19T13:42:11;5.65;;;1.42;;
25237;SDS011;13185;50.872;5.306;2023-05-19T13:44:36;5.93;;;1.33;;
25237;SDS011;13185;50.872;5.306;2023-05-19T13:47:02;4.28;;;1.50;;
25237;SDS011;13185;50.872;5.306;2023-05-19T13:49:27;4.22;;;1.27;;
25237;SDS011;13185;50.872;5.306;2023-05-19T13:51:56;4.35;;;1.13;;
25237;SDS011;13185;50.872;5.306;2023-05-19T13:54:22;3.55;;;1.30;;
25237;SDS011;13185;50.872;5.306;2023-05-19T13:56:48;3.13;;;1.00;;
25237;SDS011;13185;50.872;5.306;2023-05-19T13:59:14;4.88;;;1.33;;
25237;SDS011;13185;50.872;5.306;2023-05-19T14:01:41;6.57;;;1.30;;
25237;SDS011;13185;50.872;5.306;2023-05-19T14:04:07;6.07;;;1.92;;
25237;SDS011;13185;50.872;5.306;2023-05-19T14:06:34;5.57;;;1.35;;
25237;SDS011;13185;50.872;5.306;2023-05-19T14:09:00;4.75;;;1.52;;
25237;SDS011;13185;50.872;5.306;2023-05-19T14:11:26;6.30;;;1.33;;
25237;SDS011;13185;50.872;5.306;2023-05-19T14:13:52;8.50;;;1.95;;
25237;SDS011;13185;50.872;5.306;2023-05-19T14:16:18;4.70;;;1.50;;
25237;SDS011;13185;50.872;5.306;2023-05-19T14:18:45;4.53;;;1.35;;
25237;SDS011;13185;50.872;5.306;2023-05-19T14:21:11;4.07;;;1.65;;
25237;SDS011;13185;50.872;5.306;2023-05-19T14:23:36;4.82;;;1.27;;
25237;SDS011;13185;50.872;5.306;2023-05-19T14:26:02;4.25;;;1.48;;
25237;SDS011;13185;50.872;5.306;2023-05-19T14:28:28;5.20;;;1.48;;
25237;SDS011;13185;50.872;5.306;2023-05-19T14:30:53;3.50;;;1.38;;
25237;SDS011;13185;50.872;5.306;2023-05-19T14:33:19;3.45;;;1.30;;
25237;SDS011;13185;50.872;5.306;2023-05-19T14:35:45;5.18;;;1.40;;
25237;SDS011;13185;50.872;5.306;2023-05-19T14:38:11;5.13;;;1.42;;
25237;SDS011;13185;50.872;5.306;2023-05-19T14:40:36;3.65;;;1.30;;
25237;SDS011;13185;50.872;5.306;2023-05-19T14:43:02;6.10;;;1.80;;
25237;SDS011;13185;50.872;5.306;2023-05-19T14:45:28;4.47;;;1.60;;
25237;SDS011;13185;50.872;5.306;2023-05-19T14:47:53;6.40;;;1.60;;
25237;SDS011;13185;50.872;5.306;2023-05-19T14:50:19;5.20;;;1.23;;
25237;SDS011;13185;50.872;5.306;2023-05-19T14:52:44;5.07;;;1.67;;
25237;SDS011;13185;50.872;5.306;2023-05-19T14:55:10;8.07;;;2.50;;
25237;SDS011;13185;50.872;5.306;2023-05-19T14:57:36;3.92;;;1.65;;
25237;SDS011;13185;50.872;5.306;2023-05-19T15:00:01;4.50;;;1.38;;
25237;SDS011;13185;50.872;5.306;2023-05-19T15:02:27;5.30;;;1.30;;
25237;SDS011;13185;50.872;5.306;2023-05-19T15:04:53;6.47;;;1.70;;
25237;SDS011;13185;50.872;5.306;2023-05-19T15:07:18;5.50;;;2.45;;
25237;SDS011;13185;50.872;5.306;2023-05-19T15:09:44;6.60;;;1.65;;
25237;SDS011;13185;50.872;5.306;2023-05-19T15:12:10;4.60;;;1.52;;
25237;SDS011;13185;50.872;5.306;2023-05-19T15:14:35;7.45;;;1.88;;
25237;SDS011;13185;50.872;5.306;2023-05-19T15:17:01;4.40;;;1.33;;
25237;SDS011;13185;50.872;5.306;2023-05-19T15:19:26;4.00;;;1.23;;
25237;SDS011;13185;50.872;5.306;2023-05-19T15:21:52;9.77;;;1.85;;
25237;SDS011;13185;50.872;5.306;2023-05-19T15:24:18;4.43;;;1.35;;
25237;SDS011;13185;50.872;5.306;2023-05-19T15:26:43;5.95;;;1.33;;